sensor_id;sensor_type;location;lat;lon;timestamp;P1;durP1;ratioP1;P2;durP2;ratioP2
75427;SDS011;64008;55.612;37.698;2023-04-03T00:02:03;5.70;;;2.45;;
75427;SDS011;64008;55.612;37.698;2023-04-03T00:04:28;6.07;;;2.80;;
75427;SDS011;64008;55.612;37.698;2023-04-03T00:06:53;5.50;;;2.67;;
75427;SDS011;64008;55.612;37.698;2023-04-03T00:09:19;4.82;;;2.17;;
75427;SDS011;64008;55.612;37.698;2023-04-03T00:11:45;6.35;;;2.75;;
75427;SDS011;64008;55.612;37.698;2023-04-03T00:14:10;9.35;;;2.70;;
75427;SDS011;64008;55.612;37.698;2023-04-03T00:16:36;7.82;;;2.60;;
75427;SDS011;64008;55.612;37.698;2023-04-03T00:19:02;6.43;;;2.72;;
75427;SDS011;64008;55.612;37.698;2023-04-03T00:21:27;5.28;;;2.53;;
75427;SDS011;64008;55.612;37.698;2023-04-03T00:23:53;8.95;;;2.85;;
75427;SDS011;64008;55.612;37.698;2023-04-03T00:26:18;7.38;;;2.58;;
75427;SDS011;64008;55.612;37.698;2023-04-03T00:28:46;7.47;;;2.90;;
75427;SDS011;64008;55.612;37.698;2023-04-03T00:31:13;7.32;;;3.20;;
75427;SDS011;64008;55.612;37.698;2023-04-03T00:33:40;6.03;;;2.65;;
75427;SDS011;64008;55.612;37.698;2023-04-03T00:36:06;5.78;;;2.75;;
75427;SDS011;64008;55.612;37.698;2023-04-03T00:38:32;5.85;;;2.75;;
75427;SDS011;64008;55.612;37.698;2023-04-03T00:40:58;5.93;;;2.90;;
75427;SDS011;64008;55.612;37.698;2023-04-03T00:43:24;7.90;;;3.17;;
75427;SDS011;64008;55.612;37.698;2023-04-03T00:45:52;7.40;;;3.00;;
75427;SDS011;64008;55.612;37.698;2023-04-03T00:48:32;6.07;;;2.55;;
75427;SDS011;64008;55.612;37.698;2023-04-03T00:50:58;5.70;;;2.75;;
75427;SDS011;64008;55.612;37.698;2023-04-03T00:53:26;5.65;;;2.80;;
75427;SDS011;64008;55.612;37.698;2023-04-03T00:55:55;6.95;;;2.63;;
75427;SDS011;64008;55.612;37.698;2023-04-03T00:58:22;6.95;;;2.67;;
75427;SDS011;64008;55.612;37.698;2023-04-03T01:00:57;7.07;;;2.90;;
75427;SDS011;64008;55.612;37.698;2023-04-03T01:03:23;7.10;;;2.90;;
75427;SDS011;64008;55.612;37.698;2023-04-03T01:05:49;8.15;;;3.25;;
75427;SDS011;64008;55.612;37.698;2023-04-03T01:08:15;6.38;;;2.97;;
75427;SDS011;64008;55.612;37.698;2023-04-03T01:10:41;9.00;;;4.13;;
75427;SDS011;64008;55.612;37.698;2023-04-03T01:13:20;11.77;;;3.67;;
75427;SDS011;64008;55.612;37.698;2023-04-03T01:15:49;7.93;;;3.30;;
75427;SDS011;64008;55.612;37.698;2023-04-03T01:18:15;6.20;;;2.92;;
75427;SDS011;64008;55.612;37.698;2023-04-03T01:23:25;6.82;;;3.13;;
75427;SDS011;64008;55.612;37.698;2023-04-03T01:26:00;7.93;;;3.05;;
75427;SDS011;64008;55.612;37.698;2023-04-03T01:28:27;7.97;;;3.38;;
75427;SDS011;64008;55.612;37.698;2023-04-03T01:33:59;8.15;;;3.35;;
75427;SDS011;64008;55.612;37.698;2023-04-03T01:36:25;8.27;;;3.35;;
75427;SDS011;64008;55.612;37.698;2023-04-03T01:38:54;6.63;;;3.13;;
75427;SDS011;64008;55.612;37.698;2023-04-03T01:41:20;8.02;;;2.92;;
75427;SDS011;64008;55.612;37.698;2023-04-03T01:43:47;6.43;;;2.80;;
75427;SDS011;64008;55.612;37.698;2023-04-03T01:46:14;6.20;;;3.15;;
75427;SDS011;64008;55.612;37.698;2023-04-03T01:48:43;8.18;;;2.65;;
75427;SDS011;64008;55.612;37.698;2023-04-03T01:51:09;7.10;;;2.88;;
75427;SDS011;64008;55.612;37.698;2023-04-03T01:53:35;9.27;;;3.60;;
75427;SDS011;64008;55.612;37.698;2023-04-03T01:56:00;12.18;;;3.97;;
75427;SDS011;64008;55.612;37.698;2023-04-03T01:58:26;6.05;;;3.08;;
75427;SDS011;64008;55.612;37.698;2023-04-03T02:00:52;7.65;;;2.80;;
75427;SDS011;64008;55.612;37.698;2023-04-03T02:03:18;7.15;;;2.90;;
75427;SDS011;64008;55.612;37.698;2023-04-03T02:05:44;6.35;;;3.05;;
75427;SDS011;64008;55.612;37.698;2023-04-03T02:08:09;6.80;;;2.83;;
75427;SDS011;64008;55.612;37.698;2023-04-03T02:10:35;7.88;;;2.90;;
75427;SDS011;64008;55.612;37.698;2023-04-03T02:13:01;7.03;;;3.00;;
75427;SDS011;64008;55.612;37.698;2023-04-03T02:15:26;9.02;;;2.92;;
75427;SDS011;64008;55.612;37.698;2023-04-03T02:17:52;7.47;;;3.25;;
75427;SDS011;64008;55.612;37.698;2023-04-03T02:20:17;6.88;;;2.92;;
75427;SDS011;64008;55.612;37.698;2023-04-03T02:22:43;7.40;;;3.50;;
75427;SDS011;64008;55.612;37.698;2023-04-03T02:25:09;7.68;;;3.45;;
75427;SDS011;64008;55.612;37.698;2023-04-03T02:27:35;8.95;;;3.35;;
75427;SDS011;64008;55.612;37.698;2023-04-03T02:30:01;9.82;;;3.20;;
75427;SDS011;64008;55.612;37.698;2023-04-03T02:32:27;8.77;;;3.55;;
75427;SDS011;64008;55.612;37.698;2023-04-03T02:34:53;9.13;;;3.63;;
75427;SDS011;64008;55.612;37.698;2023-04-03T02:37:18;7.85;;;3.20;;
75427;SDS011;64008;55.612;37.698;2023-04-03T02:39:44;8.52;;;3.45;;
75427;SDS011;64008;55.612;37.698;2023-04-03T02:42:09;9.25;;;3.63;;
75427;SDS011;64008;55.612;37.698;2023-04-03T02:44:35;10.13;;;3.25;;
75427;SDS011;64008;55.612;37.698;2023-04-03T02:47:01;8.82;;;3.47;;
75427;SDS011;64008;55.612;37.698;2023-04-03T02:51:52;7.40;;;3.17;;
75427;SDS011;64008;55.612;37.698;2023-04-03T02:54:18;8.70;;;3.67;;
75427;SDS011;64008;55.612;37.698;2023-04-03T02:56:44;7.97;;;3.60;;
75427;SDS011;64008;55.612;37.698;2023-04-03T02:59:09;10.25;;;3.88;;
75427;SDS011;64008;55.612;37.698;2023-04-03T03:01:35;12.00;;;4.20;;
75427;SDS011;64008;55.612;37.698;2023-04-03T03:04:01;9.00;;;3.80;;
75427;SDS011;64008;55.612;37.698;2023-04-03T03:06:26;8.00;;;3.85;;
75427;SDS011;64008;55.612;37.698;2023-04-03T03:08:52;11.75;;;4.10;;
75427;SDS011;64008;55.612;37.698;2023-04-03T03:11:18;7.82;;;3.67;;
75427;SDS011;64008;55.612;37.698;2023-04-03T03:13:44;9.25;;;3.88;;
75427;SDS011;64008;55.612;37.698;2023-04-03T03:16:09;10.13;;;3.92;;
75427;SDS011;64008;55.612;37.698;2023-04-03T03:18:35;9.82;;;4.20;;
75427;SDS011;64008;55.612;37.698;2023-04-03T03:21:01;11.68;;;4.15;;
75427;SDS011;64008;55.612;37.698;2023-04-03T03:23:28;9.57;;;4.32;;
75427;SDS011;64008;55.612;37.698;2023-04-03T03:25:56;9.30;;;3.88;;
75427;SDS011;64008;55.612;37.698;2023-04-03T03:28:23;11.80;;;4.15;;
75427;SDS011;64008;55.612;37.698;2023-04-03T03:30:48;12.15;;;4.32;;
75427;SDS011;64008;55.612;37.698;2023-04-03T03:33:14;8.23;;;4.13;;
75427;SDS011;64008;55.612;37.698;2023-04-03T03:35:40;7.72;;;3.92;;
75427;SDS011;64008;55.612;37.698;2023-04-03T03:38:05;12.68;;;4.53;;
75427;SDS011;64008;55.612;37.698;2023-04-03T03:40:31;8.27;;;4.03;;
75427;SDS011;64008;55.612;37.698;2023-04-03T03:42:56;10.30;;;4.43;;
75427;SDS011;64008;55.612;37.698;2023-04-03T03:45:22;8.55;;;3.88;;
75427;SDS011;64008;55.612;37.698;2023-04-03T03:47:48;7.50;;;3.92;;
75427;SDS011;64008;55.612;37.698;2023-04-03T03:50:13;13.60;;;4.55;;
75427;SDS011;64008;55.612;37.698;2023-04-03T03:52:39;8.70;;;3.85;;
75427;SDS011;64008;55.612;37.698;2023-04-03T03:55:05;9.30;;;4.40;;
75427;SDS011;64008;55.612;37.698;2023-04-03T03:57:30;12.73;;;5.18;;
75427;SDS011;64008;55.612;37.698;2023-04-03T03:59:56;12.05;;;4.53;;
75427;SDS011;64008;55.612;37.698;2023-04-03T04:02:21;10.07;;;4.47;;
75427;SDS011;64008;55.612;37.698;2023-04-03T04:04:48;9.63;;;4.75;;
75427;SDS011;64008;55.612;37.698;2023-04-03T04:07:14;11.27;;;4.63;;
75427;SDS011;64008;55.612;37.698;2023-04-03T04:09:39;11.85;;;4.45;;
75427;SDS011;64008;55.612;37.698;2023-04-03T04:12:05;11.82;;;4.55;;
75427;SDS011;64008;55.612;37.698;2023-04-03T04:14:31;11.25;;;4.70;;
75427;SDS011;64008;55.612;37.698;2023-04-03T04:16:56;10.07;;;5.22;;
75427;SDS011;64008;55.612;37.698;2023-04-03T04:19:22;10.57;;;4.88;;
75427;SDS011;64008;55.612;37.698;2023-04-03T04:21:47;13.18;;;5.15;;
75427;SDS011;64008;55.612;37.698;2023-04-03T04:24:13;12.73;;;5.15;;
75427;SDS011;64008;55.612;37.698;2023-04-03T04:26:38;10.82;;;4.78;;
75427;SDS011;64008;55.612;37.698;2023-04-03T04:29:04;12.32;;;4.60;;
75427;SDS011;64008;55.612;37.698;2023-04-03T04:31:30;12.80;;;4.78;;
75427;SDS011;64008;55.612;37.698;2023-04-03T04:33:55;11.65;;;4.70;;
75427;SDS011;64008;55.612;37.698;2023-04-03T04:36:21;10.05;;;4.38;;
75427;SDS011;64008;55.612;37.698;2023-04-03T04:38:46;13.55;;;5.03;;
75427;SDS011;64008;55.612;37.698;2023-04-03T04:41:12;11.32;;;4.57;;
75427;SDS011;64008;55.612;37.698;2023-04-03T04:43:37;11.15;;;4.88;;
75427;SDS011;64008;55.612;37.698;2023-04-03T04:46:04;11.93;;;4.53;;
75427;SDS011;64008;55.612;37.698;2023-04-03T04:48:31;15.52;;;5.00;;
75427;SDS011;64008;55.612;37.698;2023-04-03T04:50:57;11.13;;;5.22;;
75427;SDS011;64008;55.612;37.698;2023-04-03T04:53:23;11.05;;;4.72;;
75427;SDS011;64008;55.612;37.698;2023-04-03T04:55:48;12.10;;;4.80;;
75427;SDS011;64008;55.612;37.698;2023-04-03T04:58:14;12.32;;;4.60;;
75427;SDS011;64008;55.612;37.698;2023-04-03T05:00:40;10.18;;;4.50;;
75427;SDS011;64008;55.612;37.698;2023-04-03T05:03:05;15.52;;;5.15;;
75427;SDS011;64008;55.612;37.698;2023-04-03T05:05:31;13.45;;;4.85;;
75427;SDS011;64008;55.612;37.698;2023-04-03T05:07:57;10.35;;;4.40;;
75427;SDS011;64008;55.612;37.698;2023-04-03T05:10:22;13.52;;;4.30;;
75427;SDS011;64008;55.612;37.698;2023-04-03T05:12:48;14.63;;;4.47;;
75427;SDS011;64008;55.612;37.698;2023-04-03T05:15:13;16.80;;;4.80;;
75427;SDS011;64008;55.612;37.698;2023-04-03T05:17:39;13.55;;;5.03;;
75427;SDS011;64008;55.612;37.698;2023-04-03T05:20:05;13.30;;;4.68;;
75427;SDS011;64008;55.612;37.698;2023-04-03T05:22:31;14.57;;;4.72;;
75427;SDS011;64008;55.612;37.698;2023-04-03T05:24:56;12.85;;;4.53;;
75427;SDS011;64008;55.612;37.698;2023-04-03T05:27:22;15.40;;;5.57;;
75427;SDS011;64008;55.612;37.698;2023-04-03T05:29:49;13.45;;;5.40;;
75427;SDS011;64008;55.612;37.698;2023-04-03T05:32:15;9.52;;;4.72;;
75427;SDS011;64008;55.612;37.698;2023-04-03T05:34:41;15.88;;;7.00;;
75427;SDS011;64008;55.612;37.698;2023-04-03T05:37:07;10.93;;;4.53;;
75427;SDS011;64008;55.612;37.698;2023-04-03T05:39:32;12.93;;;5.80;;
75427;SDS011;64008;55.612;37.698;2023-04-03T05:41:58;15.05;;;4.97;;
75427;SDS011;64008;55.612;37.698;2023-04-03T05:44:24;11.15;;;4.57;;
75427;SDS011;64008;55.612;37.698;2023-04-03T05:46:50;11.65;;;5.43;;
75427;SDS011;64008;55.612;37.698;2023-04-03T05:49:15;12.18;;;5.13;;
75427;SDS011;64008;55.612;37.698;2023-04-03T05:51:41;17.33;;;4.72;;
75427;SDS011;64008;55.612;37.698;2023-04-03T05:54:09;15.70;;;4.70;;
75427;SDS011;64008;55.612;37.698;2023-04-03T05:56:38;12.65;;;5.05;;
75427;SDS011;64008;55.612;37.698;2023-04-03T05:59:04;14.05;;;5.32;;
75427;SDS011;64008;55.612;37.698;2023-04-03T06:01:29;19.08;;;5.43;;
75427;SDS011;64008;55.612;37.698;2023-04-03T06:03:55;17.95;;;6.18;;
75427;SDS011;64008;55.612;37.698;2023-04-03T06:06:23;17.77;;;5.75;;
75427;SDS011;64008;55.612;37.698;2023-04-03T06:08:49;16.88;;;6.13;;
75427;SDS011;64008;55.612;37.698;2023-04-03T06:11:15;14.65;;;5.75;;
75427;SDS011;64008;55.612;37.698;2023-04-03T06:13:41;12.88;;;5.50;;
75427;SDS011;64008;55.612;37.698;2023-04-03T06:16:08;15.80;;;5.60;;
75427;SDS011;64008;55.612;37.698;2023-04-03T06:18:39;13.20;;;5.13;;
75427;SDS011;64008;55.612;37.698;2023-04-03T06:21:04;18.13;;;5.82;;
75427;SDS011;64008;55.612;37.698;2023-04-03T06:23:32;12.70;;;5.75;;
75427;SDS011;64008;55.612;37.698;2023-04-03T06:25:58;13.85;;;4.93;;
75427;SDS011;64008;55.612;37.698;2023-04-03T06:28:24;17.08;;;5.45;;
75427;SDS011;64008;55.612;37.698;2023-04-03T06:30:50;16.27;;;5.03;;
75427;SDS011;64008;55.612;37.698;2023-04-03T06:33:15;16.40;;;5.57;;
75427;SDS011;64008;55.612;37.698;2023-04-03T06:35:41;12.82;;;5.68;;
75427;SDS011;64008;55.612;37.698;2023-04-03T06:38:07;14.98;;;6.10;;
75427;SDS011;64008;55.612;37.698;2023-04-03T06:40:34;11.20;;;5.55;;
75427;SDS011;64008;55.612;37.698;2023-04-03T06:43:01;13.23;;;6.10;;
75427;SDS011;64008;55.612;37.698;2023-04-03T06:45:26;13.90;;;5.68;;
75427;SDS011;64008;55.612;37.698;2023-04-03T06:47:52;13.50;;;6.38;;
75427;SDS011;64008;55.612;37.698;2023-04-03T06:50:18;13.95;;;6.22;;
75427;SDS011;64008;55.612;37.698;2023-04-03T06:52:44;14.90;;;5.93;;
75427;SDS011;64008;55.612;37.698;2023-04-03T06:55:10;17.63;;;6.65;;
75427;SDS011;64008;55.612;37.698;2023-04-03T06:57:36;13.25;;;5.70;;
75427;SDS011;64008;55.612;37.698;2023-04-03T07:00:03;15.60;;;6.93;;
75427;SDS011;64008;55.612;37.698;2023-04-03T07:02:30;14.95;;;6.25;;
75427;SDS011;64008;55.612;37.698;2023-04-03T07:04:56;14.18;;;6.88;;
75427;SDS011;64008;55.612;37.698;2023-04-03T07:07:21;17.92;;;6.72;;
75427;SDS011;64008;55.612;37.698;2023-04-03T07:09:47;14.63;;;6.35;;
75427;SDS011;64008;55.612;37.698;2023-04-03T07:12:13;16.23;;;6.35;;
75427;SDS011;64008;55.612;37.698;2023-04-03T07:14:39;13.73;;;6.13;;
75427;SDS011;64008;55.612;37.698;2023-04-03T07:17:04;15.20;;;6.68;;
75427;SDS011;64008;55.612;37.698;2023-04-03T07:19:30;15.18;;;6.97;;
75427;SDS011;64008;55.612;37.698;2023-04-03T07:21:56;25.30;;;7.30;;
75427;SDS011;64008;55.612;37.698;2023-04-03T07:24:22;14.32;;;6.13;;
75427;SDS011;64008;55.612;37.698;2023-04-03T07:26:51;17.08;;;6.68;;
75427;SDS011;64008;55.612;37.698;2023-04-03T07:29:18;19.27;;;6.65;;
75427;SDS011;64008;55.612;37.698;2023-04-03T07:31:45;16.90;;;7.03;;
75427;SDS011;64008;55.612;37.698;2023-04-03T07:34:10;37.42;;;6.47;;
75427;SDS011;64008;55.612;37.698;2023-04-03T07:36:36;28.65;;;6.57;;
75427;SDS011;64008;55.612;37.698;2023-04-03T07:39:02;20.95;;;7.60;;
75427;SDS011;64008;55.612;37.698;2023-04-03T07:41:28;17.20;;;6.65;;
75427;SDS011;64008;55.612;37.698;2023-04-03T07:43:54;18.15;;;6.78;;
75427;SDS011;64008;55.612;37.698;2023-04-03T07:46:21;16.20;;;6.38;;
75427;SDS011;64008;55.612;37.698;2023-04-03T07:48:47;15.82;;;7.10;;
75427;SDS011;64008;55.612;37.698;2023-04-03T07:51:12;14.90;;;6.90;;
75427;SDS011;64008;55.612;37.698;2023-04-03T07:53:38;14.10;;;7.15;;
75427;SDS011;64008;55.612;37.698;2023-04-03T07:56:04;12.65;;;6.47;;
75427;SDS011;64008;55.612;37.698;2023-04-03T07:58:30;15.75;;;6.55;;
75427;SDS011;64008;55.612;37.698;2023-04-03T08:00:56;14.80;;;7.18;;
75427;SDS011;64008;55.612;37.698;2023-04-03T08:03:21;20.17;;;7.50;;
75427;SDS011;64008;55.612;37.698;2023-04-03T08:05:47;14.63;;;6.72;;
75427;SDS011;64008;55.612;37.698;2023-04-03T08:08:16;19.88;;;7.03;;
75427;SDS011;64008;55.612;37.698;2023-04-03T08:10:43;14.13;;;6.38;;
75427;SDS011;64008;55.612;37.698;2023-04-03T08:13:12;13.07;;;6.72;;
75427;SDS011;64008;55.612;37.698;2023-04-03T08:15:38;14.57;;;8.60;;
75427;SDS011;64008;55.612;37.698;2023-04-03T08:18:03;13.15;;;6.80;;
75427;SDS011;64008;55.612;37.698;2023-04-03T08:20:29;14.57;;;6.50;;
75427;SDS011;64008;55.612;37.698;2023-04-03T08:22:55;15.07;;;6.93;;
75427;SDS011;64008;55.612;37.698;2023-04-03T08:25:21;22.75;;;8.25;;
75427;SDS011;64008;55.612;37.698;2023-04-03T08:27:46;14.13;;;7.15;;
75427;SDS011;64008;55.612;37.698;2023-04-03T08:30:12;13.75;;;7.65;;
75427;SDS011;64008;55.612;37.698;2023-04-03T08:32:38;16.08;;;6.50;;
75427;SDS011;64008;55.612;37.698;2023-04-03T08:35:06;18.15;;;7.22;;
75427;SDS011;64008;55.612;37.698;2023-04-03T08:37:34;15.15;;;7.20;;
75427;SDS011;64008;55.612;37.698;2023-04-03T08:40:01;12.75;;;6.45;;
75427;SDS011;64008;55.612;37.698;2023-04-03T08:45:45;19.63;;;7.50;;
75427;SDS011;64008;55.612;37.698;2023-04-03T08:48:15;14.57;;;7.32;;
75427;SDS011;64008;55.612;37.698;2023-04-03T08:50:47;23.50;;;6.95;;
75427;SDS011;64008;55.612;37.698;2023-04-03T08:53:23;15.23;;;7.63;;
75427;SDS011;64008;55.612;37.698;2023-04-03T08:55:53;22.77;;;7.57;;
75427;SDS011;64008;55.612;37.698;2023-04-03T08:58:27;17.83;;;8.40;;
75427;SDS011;64008;55.612;37.698;2023-04-03T09:03:28;16.70;;;8.30;;
75427;SDS011;64008;55.612;37.698;2023-04-03T09:06:16;21.10;;;8.20;;
75427;SDS011;64008;55.612;37.698;2023-04-03T09:08:51;15.93;;;6.63;;
75427;SDS011;64008;55.612;37.698;2023-04-03T09:11:31;57.65;;;19.77;;
75427;SDS011;64008;55.612;37.698;2023-04-03T09:14:09;19.30;;;7.20;;
75427;SDS011;64008;55.612;37.698;2023-04-03T09:16:59;18.15;;;7.32;;
75427;SDS011;64008;55.612;37.698;2023-04-03T09:19:35;15.65;;;7.07;;
75427;SDS011;64008;55.612;37.698;2023-04-03T09:22:22;13.90;;;6.95;;
75427;SDS011;64008;55.612;37.698;2023-04-03T09:24:52;17.35;;;7.93;;
75427;SDS011;64008;55.612;37.698;2023-04-03T09:27:24;14.52;;;6.95;;
75427;SDS011;64008;55.612;37.698;2023-04-03T09:29:49;17.92;;;7.43;;
75427;SDS011;64008;55.612;37.698;2023-04-03T09:32:33;16.92;;;8.63;;
75427;SDS011;64008;55.612;37.698;2023-04-03T09:35:04;17.55;;;7.10;;
75427;SDS011;64008;55.612;37.698;2023-04-03T09:37:44;16.33;;;7.28;;
75427;SDS011;64008;55.612;37.698;2023-04-03T09:42:53;15.88;;;7.55;;
75427;SDS011;64008;55.612;37.698;2023-04-03T09:45:25;15.43;;;7.47;;
75427;SDS011;64008;55.612;37.698;2023-04-03T09:48:04;17.50;;;7.72;;
75427;SDS011;64008;55.612;37.698;2023-04-03T09:50:52;17.27;;;7.07;;
75427;SDS011;64008;55.612;37.698;2023-04-03T09:53:34;13.40;;;6.40;;
75427;SDS011;64008;55.612;37.698;2023-04-03T09:56:18;14.18;;;7.00;;
75427;SDS011;64008;55.612;37.698;2023-04-03T09:58:51;13.63;;;6.03;;
75427;SDS011;64008;55.612;37.698;2023-04-03T10:01:27;14.30;;;7.28;;
75427;SDS011;64008;55.612;37.698;2023-04-03T10:04:17;12.18;;;6.03;;
75427;SDS011;64008;55.612;37.698;2023-04-03T10:06:48;18.42;;;7.07;;
75427;SDS011;64008;55.612;37.698;2023-04-03T10:14:38;13.68;;;6.57;;
75427;SDS011;64008;55.612;37.698;2023-04-03T10:19:47;13.77;;;6.53;;
75427;SDS011;64008;55.612;37.698;2023-04-03T10:27:59;14.30;;;6.35;;
75427;SDS011;64008;55.612;37.698;2023-04-03T10:39:00;10.20;;;4.75;;
75427;SDS011;64008;55.612;37.698;2023-04-03T10:41:43;10.13;;;4.63;;
75427;SDS011;64008;55.612;37.698;2023-04-03T10:47:18;13.52;;;5.05;;
75427;SDS011;64008;55.612;37.698;2023-04-03T10:52:37;9.05;;;3.88;;
75427;SDS011;64008;55.612;37.698;2023-04-03T10:57:57;13.98;;;4.50;;
75427;SDS011;64008;55.612;37.698;2023-04-03T11:00:35;17.80;;;5.40;;
75427;SDS011;64008;55.612;37.698;2023-04-03T11:03:49;28.77;;;6.88;;
75427;SDS011;64008;55.612;37.698;2023-04-03T11:05:59;26.40;;;8.60;;
75427;SDS011;64008;55.612;37.698;2023-04-03T11:08:28;25.88;;;8.20;;
75427;SDS011;64008;55.612;37.698;2023-04-03T11:11:04;26.42;;;7.28;;
75427;SDS011;64008;55.612;37.698;2023-04-03T11:13:38;22.73;;;6.55;;
75427;SDS011;64008;55.612;37.698;2023-04-03T11:16:08;18.38;;;6.07;;
75427;SDS011;64008;55.612;37.698;2023-04-03T11:23:54;13.23;;;5.45;;
75427;SDS011;64008;55.612;37.698;2023-04-03T11:26:24;12.75;;;5.30;;
75427;SDS011;64008;55.612;37.698;2023-04-03T11:28:58;14.60;;;5.40;;
75427;SDS011;64008;55.612;37.698;2023-04-03T11:36:57;9.57;;;4.20;;
75427;SDS011;64008;55.612;37.698;2023-04-03T11:41:53;11.43;;;4.45;;
75427;SDS011;64008;55.612;37.698;2023-04-03T11:44:29;10.55;;;3.97;;
75427;SDS011;64008;55.612;37.698;2023-04-03T11:47:04;13.30;;;3.88;;
75427;SDS011;64008;55.612;37.698;2023-04-03T12:08:25;8.07;;;3.70;;
75427;SDS011;64008;55.612;37.698;2023-04-03T12:16:41;8.10;;;3.10;;
75427;SDS011;64008;55.612;37.698;2023-04-03T12:18:59;7.45;;;3.42;;
75427;SDS011;64008;55.612;37.698;2023-04-03T12:32:24;9.43;;;3.03;;
75427;SDS011;64008;55.612;37.698;2023-04-03T12:35:29;9.20;;;3.55;;
75427;SDS011;64008;55.612;37.698;2023-04-03T12:41:01;9.80;;;3.05;;
75427;SDS011;64008;55.612;37.698;2023-04-03T12:43:42;6.82;;;3.50;;
75427;SDS011;64008;55.612;37.698;2023-04-03T12:46:17;9.02;;;3.05;;
75427;SDS011;64008;55.612;37.698;2023-04-03T12:51:13;14.73;;;3.88;;
75427;SDS011;64008;55.612;37.698;2023-04-03T12:53:41;9.50;;;3.53;;
75427;SDS011;64008;55.612;37.698;2023-04-03T12:58:46;9.40;;;3.75;;
75427;SDS011;64008;55.612;37.698;2023-04-03T13:01:13;10.13;;;3.10;;
75427;SDS011;64008;55.612;37.698;2023-04-03T13:03:44;8.73;;;3.20;;
75427;SDS011;64008;55.612;37.698;2023-04-03T13:06:19;9.70;;;3.33;;
75427;SDS011;64008;55.612;37.698;2023-04-03T13:08:56;8.82;;;3.30;;
75427;SDS011;64008;55.612;37.698;2023-04-03T13:11:29;7.28;;;3.50;;
75427;SDS011;64008;55.612;37.698;2023-04-03T13:14:01;10.57;;;3.58;;
75427;SDS011;64008;55.612;37.698;2023-04-03T13:16:30;10.77;;;3.30;;
75427;SDS011;64008;55.612;37.698;2023-04-03T13:18:56;10.23;;;3.17;;
75427;SDS011;64008;55.612;37.698;2023-04-03T13:21:32;7.97;;;3.05;;
75427;SDS011;64008;55.612;37.698;2023-04-03T13:24:00;8.25;;;3.10;;
75427;SDS011;64008;55.612;37.698;2023-04-03T13:26:29;8.48;;;2.85;;
75427;SDS011;64008;55.612;37.698;2023-04-03T13:29:05;7.32;;;2.80;;
75427;SDS011;64008;55.612;37.698;2023-04-03T13:31:33;6.20;;;2.92;;
75427;SDS011;64008;55.612;37.698;2023-04-03T13:36:41;8.13;;;3.15;;
75427;SDS011;64008;55.612;37.698;2023-04-03T13:41:37;8.65;;;3.08;;
75427;SDS011;64008;55.612;37.698;2023-04-03T13:44:17;10.43;;;3.33;;
75427;SDS011;64008;55.612;37.698;2023-04-03T13:46:46;7.63;;;3.15;;
75427;SDS011;64008;55.612;37.698;2023-04-03T13:51:56;10.77;;;3.50;;
75427;SDS011;64008;55.612;37.698;2023-04-03T13:54:23;7.70;;;3.38;;
75427;SDS011;64008;55.612;37.698;2023-04-03T13:56:55;7.03;;;3.25;;
75427;SDS011;64008;55.612;37.698;2023-04-03T13:59:24;7.13;;;3.28;;
75427;SDS011;64008;55.612;37.698;2023-04-03T14:04:24;8.45;;;3.70;;
75427;SDS011;64008;55.612;37.698;2023-04-03T14:06:53;7.22;;;3.83;;
75427;SDS011;64008;55.612;37.698;2023-04-03T14:11:46;8.13;;;3.30;;
75427;SDS011;64008;55.612;37.698;2023-04-03T14:14:18;7.50;;;3.45;;
75427;SDS011;64008;55.612;37.698;2023-04-03T14:16:56;9.95;;;3.78;;
75427;SDS011;64008;55.612;37.698;2023-04-03T14:19:28;9.38;;;3.45;;
75427;SDS011;64008;55.612;37.698;2023-04-03T14:21:55;8.70;;;3.45;;
75427;SDS011;64008;55.612;37.698;2023-04-03T14:26:48;8.65;;;3.58;;
75427;SDS011;64008;55.612;37.698;2023-04-03T14:29:15;9.98;;;3.30;;
75427;SDS011;64008;55.612;37.698;2023-04-03T14:31:42;8.93;;;3.80;;
75427;SDS011;64008;55.612;37.698;2023-04-03T14:34:13;8.38;;;3.40;;
75427;SDS011;64008;55.612;37.698;2023-04-03T14:36:39;8.00;;;3.30;;
75427;SDS011;64008;55.612;37.698;2023-04-03T14:39:07;7.90;;;3.13;;
75427;SDS011;64008;55.612;37.698;2023-04-03T14:41:35;11.55;;;3.30;;
75427;SDS011;64008;55.612;37.698;2023-04-03T14:44:01;8.25;;;3.45;;
75427;SDS011;64008;55.612;37.698;2023-04-03T14:46:31;6.80;;;3.17;;
75427;SDS011;64008;55.612;37.698;2023-04-03T14:51:25;7.50;;;3.22;;
75427;SDS011;64008;55.612;37.698;2023-04-03T14:53:51;7.82;;;2.85;;
75427;SDS011;64008;55.612;37.698;2023-04-03T14:58:54;6.38;;;2.92;;
75427;SDS011;64008;55.612;37.698;2023-04-03T15:01:22;7.72;;;3.47;;
75427;SDS011;64008;55.612;37.698;2023-04-03T15:03:48;7.18;;;3.03;;
75427;SDS011;64008;55.612;37.698;2023-04-03T15:06:13;9.35;;;3.20;;
75427;SDS011;64008;55.612;37.698;2023-04-03T15:08:40;8.13;;;2.88;;
75427;SDS011;64008;55.612;37.698;2023-04-03T15:11:08;11.23;;;3.65;;
75427;SDS011;64008;55.612;37.698;2023-04-03T15:13:35;10.85;;;3.80;;
75427;SDS011;64008;55.612;37.698;2023-04-03T15:16:00;14.82;;;3.90;;
75427;SDS011;64008;55.612;37.698;2023-04-03T15:18:27;8.38;;;3.28;;
75427;SDS011;64008;55.612;37.698;2023-04-03T15:20:55;9.65;;;3.42;;
75427;SDS011;64008;55.612;37.698;2023-04-03T15:23:20;11.30;;;4.22;;
75427;SDS011;64008;55.612;37.698;2023-04-03T15:25:51;12.45;;;3.72;;
75427;SDS011;64008;55.612;37.698;2023-04-03T15:28:39;10.20;;;5.15;;
75427;SDS011;64008;55.612;37.698;2023-04-03T15:31:05;10.05;;;4.75;;
75427;SDS011;64008;55.612;37.698;2023-04-03T15:33:32;13.85;;;5.57;;
75427;SDS011;64008;55.612;37.698;2023-04-03T15:35:59;11.13;;;5.28;;
75427;SDS011;64008;55.612;37.698;2023-04-03T15:38:25;11.73;;;5.05;;
75427;SDS011;64008;55.612;37.698;2023-04-03T15:40:50;13.27;;;4.90;;
75427;SDS011;64008;55.612;37.698;2023-04-03T15:43:16;11.23;;;5.00;;
75427;SDS011;64008;55.612;37.698;2023-04-03T15:45:42;10.55;;;4.22;;
75427;SDS011;64008;55.612;37.698;2023-04-03T15:48:09;10.00;;;4.20;;
75427;SDS011;64008;55.612;37.698;2023-04-03T15:50:35;11.27;;;4.28;;
75427;SDS011;64008;55.612;37.698;2023-04-03T15:53:01;9.50;;;4.20;;
75427;SDS011;64008;55.612;37.698;2023-04-03T15:55:28;9.52;;;4.00;;
75427;SDS011;64008;55.612;37.698;2023-04-03T15:57:56;8.73;;;4.20;;
75427;SDS011;64008;55.612;37.698;2023-04-03T16:00:22;9.85;;;4.72;;
75427;SDS011;64008;55.612;37.698;2023-04-03T16:02:49;8.57;;;3.60;;
75427;SDS011;64008;55.612;37.698;2023-04-03T16:05:18;10.38;;;3.63;;
75427;SDS011;64008;55.612;37.698;2023-04-03T16:07:44;8.00;;;3.90;;
75427;SDS011;64008;55.612;37.698;2023-04-03T16:10:11;7.93;;;3.65;;
75427;SDS011;64008;55.612;37.698;2023-04-03T16:12:37;10.07;;;4.00;;
75427;SDS011;64008;55.612;37.698;2023-04-03T16:15:04;12.35;;;3.80;;
75427;SDS011;64008;55.612;37.698;2023-04-03T16:17:31;8.18;;;3.65;;
75427;SDS011;64008;55.612;37.698;2023-04-03T16:19:57;9.65;;;4.10;;
75427;SDS011;64008;55.612;37.698;2023-04-03T16:22:24;12.30;;;3.72;;
75427;SDS011;64008;55.612;37.698;2023-04-03T16:24:51;10.57;;;3.45;;
75427;SDS011;64008;55.612;37.698;2023-04-03T16:27:16;10.48;;;3.72;;
75427;SDS011;64008;55.612;37.698;2023-04-03T16:29:42;9.02;;;4.03;;
75427;SDS011;64008;55.612;37.698;2023-04-03T16:32:08;6.97;;;3.63;;
75427;SDS011;64008;55.612;37.698;2023-04-03T16:34:34;7.63;;;3.70;;
75427;SDS011;64008;55.612;37.698;2023-04-03T16:36:59;8.70;;;3.50;;